createdAt,value
2018-02-27T10:26:31.652Z,22.8
2018-02-27T10:36:30.838Z,22.7
2018-02-27T10:46:30.236Z,22.8
2018-02-27T10:56:29.191Z,22.8
2018-02-27T11:06:28.504Z,22.8
2018-02-27T11:16:28.211Z,22.8
2018-02-27T11:26:26.835Z,22.6
2018-02-27T11:36:26.200Z,22.6
2018-02-27T11:46:25.427Z,22.6
2018-02-27T11:56:24.476Z,22.6
2018-02-27T12:06:23.809Z,22.5
2018-02-27T12:16:22.866Z,22.6
2018-02-27T12:26:22.080Z,22.5
2018-02-27T12:36:21.675Z,22.4
2018-02-27T12:46:20.646Z,22.6
2018-02-27T12:56:19.811Z,22.5
2018-02-27T13:06:18.926Z,22.4
2018-02-27T13:16:18.263Z,22.4
2018-02-27T13:26:17.365Z,22.4
2018-02-27T13:36:16.953Z,22.5
2018-02-27T13:46:15.721Z,22.6
2018-02-27T13:56:15.099Z,22.6
2018-02-27T14:06:14.152Z,22.7
2018-02-27T14:16:13.587Z,22.6
2018-02-27T14:26:12.882Z,22.5
2018-02-27T14:36:12.249Z,22.6
2018-02-27T14:46:11.010Z,22.6
2018-02-27T14:56:10.582Z,22.6
2018-02-27T15:06:09.511Z,22.7
2018-02-27T15:16:08.832Z,22.8
2018-02-27T15:26:07.880Z,22.7
2018-02-27T15:36:07.105Z,22.7
2018-02-27T15:46:06.345Z,22.8
2018-02-27T15:56:05.457Z,22.9
2018-02-27T16:06:04.666Z,22.8
2018-02-27T16:16:04.238Z,22.8
2018-02-27T16:26:03.292Z,22.8
2018-02-27T16:36:02.823Z,22.6
2018-02-27T16:46:01.862Z,22.6
2018-02-27T16:56:00.853Z,22.6
2018-02-27T17:06:00.225Z,22.6
2018-02-27T17:15:59.090Z,22.5
2018-02-27T17:25:58.631Z,22.5
2018-02-27T17:35:57.469Z,22.6
2018-02-27T17:45:56.720Z,22.8
2018-02-27T17:55:56.072Z,22.8
2018-02-27T18:05:55.101Z,22.7
2018-02-27T18:15:54.445Z,22.6
2018-02-27T18:25:53.664Z,22.9
2018-02-27T18:35:52.817Z,22.9
2018-02-27T18:45:52.041Z,22.9
2018-02-27T18:55:51.499Z,22.9
2018-02-27T19:05:50.456Z,22.9
2018-02-27T19:15:49.620Z,22.8
2018-02-27T19:25:48.962Z,22.9
2018-02-27T19:35:47.862Z,23.1
2018-02-27T19:45:47.108Z,23.1
2018-02-27T19:55:46.490Z,22.9
2018-02-27T20:05:45.996Z,22.8
2018-02-27T20:15:44.964Z,22.8
2018-02-27T20:25:44.179Z,22.8
2018-02-27T20:35:43.084Z,22.6
2018-02-27T20:45:42.493Z,22.6
2018-02-27T20:55:41.564Z,22.5
2018-02-27T21:05:41.173Z,22.5
2018-02-27T21:15:39.906Z,22.4
2018-02-27T21:25:39.234Z,22.4
2018-02-27T21:35:38.438Z,22.4
2018-02-27T21:45:37.923Z,22.4
2018-02-27T21:55:36.705Z,22.3
2018-02-27T22:05:35.864Z,22.3
2018-02-27T22:15:36.734Z,22.3
2018-02-27T22:25:35.686Z,22.3
2018-02-27T22:35:34.967Z,22.2
2018-02-27T22:45:34.539Z,22.2
2018-02-27T22:55:33.776Z,22.2
2018-02-27T23:05:32.714Z,22.2
2018-02-27T23:15:31.673Z,22.1
2018-02-27T23:25:30.991Z,22.1
2018-02-27T23:35:30.200Z,22.1
2018-02-27T23:45:29.440Z,22.1
2018-02-27T23:55:28.486Z,22.1
